createdAt,value
2018-08-08T00:00:45.530Z,37.00
2018-08-08T00:02:17.200Z,40.20
2018-08-08T00:03:48.670Z,40.40
2018-08-08T00:05:20.234Z,34.10
2018-08-08T00:06:51.805Z,36.50
2018-08-08T00:08:23.371Z,34.20
2018-08-08T00:09:54.938Z,36.80
2018-08-08T00:11:26.507Z,36.20
2018-08-08T00:12:58.077Z,39.00
2018-08-08T00:14:29.643Z,36.40
2018-08-08T00:16:01.211Z,34.70
2018-08-08T00:17:32.781Z,37.80
2018-08-08T00:19:04.405Z,36.50
2018-08-08T00:20:36.116Z,36.30
2018-08-08T00:22:07.484Z,32.30
2018-08-08T00:23:39.054Z,37.00
2018-08-08T00:25:10.621Z,33.60
2018-08-08T00:26:42.290Z,33.10
2018-08-08T00:28:13.758Z,34.80
2018-08-08T00:29:45.327Z,34.70
2018-08-08T00:31:16.895Z,31.00
2018-08-08T00:32:48.466Z,34.20
2018-08-08T00:34:20.033Z,29.70
2018-08-08T00:35:51.601Z,28.90
2018-08-08T00:37:23.168Z,29.80
2018-08-08T00:38:54.837Z,29.50
2018-08-08T00:40:26.305Z,32.80
2018-08-08T00:41:57.874Z,29.10
2018-08-08T00:43:29.442Z,31.10
2018-08-08T00:45:01.010Z,29.60
2018-08-08T00:46:32.579Z,27.70
2018-08-08T00:48:04.149Z,28.10
2018-08-08T00:49:35.716Z,30.10
2018-08-08T00:51:07.299Z,27.60
2018-08-08T00:52:38.852Z,31.60
2018-08-08T00:54:10.421Z,27.70
2018-08-08T00:55:41.990Z,28.70
2018-08-08T00:57:13.758Z,29.90
2018-08-08T00:58:45.127Z,27.20
2018-08-08T01:00:16.694Z,27.80
2018-08-08T01:01:48.263Z,27.50
2018-08-08T01:03:19.831Z,27.80
2018-08-08T01:04:51.400Z,26.60
2018-08-08T01:06:22.969Z,27.00
2018-08-08T01:07:54.552Z,25.80
2018-08-08T01:09:26.107Z,23.30
2018-08-08T01:10:57.674Z,21.80
2018-08-08T01:12:29.242Z,21.60
2018-08-08T01:14:00.810Z,22.90
2018-08-08T01:15:32.479Z,21.00
2018-08-08T01:17:03.948Z,23.40
2018-08-08T01:18:35.516Z,22.20
2018-08-08T01:20:07.087Z,21.60
2018-08-08T01:21:38.754Z,21.90
2018-08-08T01:23:10.222Z,20.60
2018-08-08T01:24:41.793Z,20.00
2018-08-08T01:26:13.359Z,18.00
2018-08-08T01:27:45.028Z,18.40
2018-08-08T01:29:16.519Z,18.30
2018-08-08T01:30:48.066Z,18.70
2018-08-08T01:32:19.633Z,17.70
2018-08-08T01:33:51.555Z,19.00
2018-08-08T01:35:22.780Z,19.70
2018-08-08T01:36:54.340Z,20.60
2018-08-08T01:38:25.908Z,19.80
2018-08-08T01:39:57.479Z,20.60
2018-08-08T01:41:29.045Z,16.30
2018-08-08T01:43:00.619Z,16.10
2018-08-08T01:44:32.184Z,19.00
2018-08-08T01:46:03.753Z,18.50
2018-08-08T01:47:35.321Z,17.70
2018-08-08T01:49:06.889Z,19.80
2018-08-08T01:50:38.458Z,18.00
2018-08-08T01:52:10.229Z,17.20
2018-08-08T01:53:41.596Z,21.20
2018-08-08T01:55:13.165Z,18.30
2018-08-08T01:56:44.734Z,17.60
2018-08-08T01:58:16.403Z,15.90
2018-08-08T01:59:47.871Z,18.50
2018-08-08T02:01:19.440Z,16.70
2018-08-08T02:02:51.043Z,17.80
2018-08-08T02:04:22.578Z,18.20
2018-08-08T02:05:54.147Z,17.60
2018-08-08T02:07:25.716Z,17.10
2018-08-08T02:08:57.285Z,16.60
2018-08-08T02:10:28.954Z,17.60
2018-08-08T02:12:00.423Z,17.00
2018-08-08T02:13:31.998Z,17.70
2018-08-08T02:15:03.561Z,15.70
2018-08-08T02:16:35.131Z,15.30
2018-08-08T02:18:06.701Z,13.70
2018-08-08T02:19:38.268Z,15.20
2018-08-08T02:21:09.839Z,13.90
2018-08-08T02:22:41.657Z,13.20
2018-08-08T02:24:12.983Z,12.30
2018-08-08T02:25:44.544Z,13.10
2018-08-08T02:27:16.116Z,13.70
2018-08-08T02:28:47.790Z,11.50
2018-08-08T02:30:19.329Z,12.50
2018-08-08T02:31:50.825Z,12.00
2018-08-08T02:33:22.392Z,12.90
2018-08-08T02:34:53.960Z,11.20
2018-08-08T02:36:25.538Z,10.00
2018-08-08T02:37:57.099Z,11.90
2018-08-08T02:39:28.670Z,11.40
2018-08-08T02:41:00.237Z,12.10
2018-08-08T02:42:31.814Z,11.00
2018-08-08T02:44:03.378Z,11.60
2018-08-08T02:45:34.946Z,10.80
2018-08-08T02:47:06.615Z,12.60
2018-08-08T02:48:38.084Z,11.10
2018-08-08T02:50:09.653Z,11.90
2018-08-08T02:51:41.222Z,14.40
2018-08-08T02:53:13.044Z,13.00
2018-08-08T02:54:44.360Z,12.40
2018-08-08T02:56:15.930Z,11.30
2018-08-08T02:57:47.499Z,12.90
2018-08-08T02:59:19.168Z,13.50
2018-08-08T03:00:50.637Z,11.90
2018-08-08T03:02:22.246Z,13.30
2018-08-08T03:03:53.776Z,12.60
2018-08-08T03:05:25.445Z,12.30
2018-08-08T03:06:56.914Z,13.60
2018-08-08T03:08:28.603Z,11.60
2018-08-08T03:10:00.056Z,15.80
2018-08-08T03:11:31.622Z,12.80
2018-08-08T03:13:03.191Z,11.70
2018-08-08T03:14:34.759Z,13.40
2018-08-08T03:16:06.329Z,13.30
2018-08-08T03:17:37.900Z,13.10
2018-08-08T03:19:09.469Z,11.30
2018-08-08T03:20:41.036Z,13.40
2018-08-08T03:22:12.605Z,13.10
2018-08-08T03:23:44.525Z,13.90
2018-08-08T03:25:15.744Z,14.90
2018-08-08T03:26:47.312Z,13.60
2018-08-08T03:28:18.881Z,13.80
2018-08-08T03:29:50.553Z,12.50
2018-08-08T03:31:22.025Z,15.30
2018-08-08T03:32:53.589Z,15.40
2018-08-08T03:34:25.159Z,13.10
2018-08-08T03:35:56.728Z,14.70
2018-08-08T03:37:28.297Z,13.70
2018-08-08T03:38:59.866Z,15.90
2018-08-08T03:40:31.435Z,15.00
2018-08-08T03:42:03.105Z,15.30
2018-08-08T03:43:34.574Z,18.20
2018-08-08T03:45:06.144Z,18.60
2018-08-08T03:46:37.723Z,17.20
2018-08-08T03:48:09.282Z,15.80
2018-08-08T03:49:40.850Z,16.10
2018-08-08T03:51:12.419Z,14.50
2018-08-08T03:52:43.989Z,15.90
2018-08-08T03:54:15.657Z,13.60
2018-08-08T03:55:47.126Z,13.60
2018-08-08T03:57:18.730Z,16.50
2018-08-08T03:58:50.286Z,15.20
2018-08-08T04:00:22.035Z,17.90
2018-08-08T04:01:53.435Z,17.00
2018-08-08T04:03:25.053Z,18.40
2018-08-08T04:04:56.611Z,13.60
2018-08-08T04:06:28.179Z,19.00
2018-08-08T04:07:59.747Z,22.70
2018-08-08T04:09:31.318Z,30.40
2018-08-08T04:11:02.880Z,57.30
2018-08-08T04:12:34.449Z,65.00
2018-08-08T04:14:06.018Z,66.50
2018-08-08T04:15:37.587Z,70.40
2018-08-08T04:17:09.171Z,78.30
2018-08-08T04:18:40.875Z,77.60
2018-08-08T04:20:12.443Z,74.50
2018-08-08T04:21:43.862Z,76.00
2018-08-08T04:23:15.431Z,79.90
2018-08-08T04:24:46.999Z,44.20
2018-08-08T04:26:18.568Z,47.60
2018-08-08T04:27:50.137Z,35.10
2018-08-08T04:29:21.706Z,37.80
2018-08-08T04:30:53.426Z,43.00
2018-08-08T04:32:24.843Z,34.30
2018-08-08T04:33:56.412Z,30.50
2018-08-08T04:35:27.982Z,27.10
2018-08-08T04:36:59.650Z,25.80
2018-08-08T04:38:31.120Z,24.20
2018-08-08T04:40:02.688Z,21.90
2018-08-08T04:41:34.256Z,21.80
2018-08-08T04:43:05.826Z,21.70
2018-08-08T04:44:37.394Z,22.90
2018-08-08T04:46:08.963Z,24.10
2018-08-08T04:47:40.532Z,20.10
2018-08-08T04:49:12.105Z,23.00
2018-08-08T04:50:43.683Z,20.10
2018-08-08T04:52:15.238Z,20.90
2018-08-08T04:53:46.807Z,23.80
2018-08-08T04:55:18.778Z,22.00
2018-08-08T04:56:49.950Z,21.50
2018-08-08T04:58:21.514Z,21.70
2018-08-08T04:59:53.082Z,25.30
2018-08-08T05:01:24.801Z,23.60
2018-08-08T05:02:56.220Z,22.80
2018-08-08T05:04:27.789Z,21.90
2018-08-08T05:05:59.357Z,21.40
2018-08-08T05:07:30.929Z,22.00
2018-08-08T05:09:02.496Z,19.50
2018-08-08T05:10:34.064Z,21.90
2018-08-08T05:12:05.632Z,23.60
2018-08-08T05:13:37.402Z,23.30
2018-08-08T05:15:08.770Z,22.60
2018-08-08T05:16:40.339Z,20.20
2018-08-08T05:18:11.907Z,20.60
2018-08-08T05:19:43.478Z,20.50
2018-08-08T05:21:15.048Z,25.30
2018-08-08T05:22:46.619Z,23.00
2018-08-08T05:24:18.192Z,23.00
2018-08-08T05:25:49.754Z,24.30
2018-08-08T05:27:21.325Z,25.40
2018-08-08T05:28:52.888Z,25.50
2018-08-08T05:30:24.461Z,21.80
2018-08-08T05:31:56.276Z,22.40
2018-08-08T05:33:27.594Z,27.20
2018-08-08T05:34:59.163Z,23.10
2018-08-08T05:36:30.732Z,21.90
2018-08-08T05:38:02.301Z,25.90
2018-08-08T05:39:33.870Z,25.50
2018-08-08T05:41:05.439Z,22.90
2018-08-08T05:42:37.007Z,23.60
2018-08-08T05:44:08.576Z,28.30
2018-08-08T05:45:40.145Z,28.50
2018-08-08T05:47:11.714Z,27.80
2018-08-08T05:48:43.283Z,28.60
2018-08-08T05:50:15.008Z,25.70
2018-08-08T05:51:46.427Z,30.50
2018-08-08T05:53:17.941Z,27.80
2018-08-08T05:54:49.507Z,28.30
2018-08-08T05:56:21.325Z,24.10
2018-08-08T05:57:52.643Z,23.10
2018-08-08T05:59:24.213Z,23.70
2018-08-08T06:00:55.781Z,24.30
2018-08-08T06:02:27.450Z,26.10
2018-08-08T06:03:58.975Z,23.00
2018-08-08T06:05:30.544Z,25.00
2018-08-08T06:07:02.113Z,27.00
2018-08-08T06:08:33.782Z,24.00
2018-08-08T06:10:05.250Z,28.90
2018-08-08T06:11:36.817Z,28.50
2018-08-08T06:13:08.332Z,30.60
2018-08-08T06:14:39.901Z,29.20
2018-08-08T06:16:11.472Z,32.70
2018-08-08T06:17:43.039Z,32.50
2018-08-08T06:19:14.607Z,31.30
2018-08-08T06:20:46.176Z,34.20
2018-08-08T06:22:17.746Z,29.10
2018-08-08T06:23:49.314Z,26.30
2018-08-08T06:25:20.908Z,28.30
2018-08-08T06:26:52.702Z,28.20
2018-08-08T06:28:24.022Z,29.00
2018-08-08T06:29:55.590Z,32.00
2018-08-08T06:31:27.159Z,29.90
2018-08-08T06:32:58.828Z,29.30
2018-08-08T06:34:30.297Z,27.50
2018-08-08T06:36:01.866Z,26.90
2018-08-08T06:37:33.449Z,26.60
2018-08-08T06:39:05.005Z,28.20
2018-08-08T06:40:36.574Z,30.90
2018-08-08T06:42:08.141Z,28.90
2018-08-08T06:43:39.738Z,29.40
2018-08-08T06:45:11.380Z,29.40
2018-08-08T06:46:42.848Z,30.30
2018-08-08T06:48:14.417Z,29.00
2018-08-08T06:49:45.986Z,31.00
2018-08-08T06:51:17.556Z,30.60
2018-08-08T06:52:49.129Z,25.30
2018-08-08T06:54:20.692Z,26.20
2018-08-08T06:55:52.261Z,24.90
2018-08-08T06:57:23.980Z,30.70
2018-08-08T06:58:55.399Z,26.60
2018-08-08T07:00:26.968Z,28.80
2018-08-08T07:01:58.537Z,28.60
2018-08-08T07:03:30.357Z,34.40
2018-08-08T07:05:01.677Z,33.30
2018-08-08T07:06:33.243Z,32.50
2018-08-08T07:08:04.812Z,34.00
2018-08-08T07:09:36.381Z,34.30
2018-08-08T07:11:07.950Z,29.60
2018-08-08T07:12:39.520Z,34.20
2018-08-08T07:14:11.123Z,34.60
2018-08-08T07:15:42.714Z,35.40
2018-08-08T07:17:14.282Z,35.90
2018-08-08T07:18:45.852Z,32.40
2018-08-08T07:20:17.420Z,32.30
2018-08-08T07:21:49.088Z,32.70
2018-08-08T07:23:21.103Z,34.90
2018-08-08T07:24:52.071Z,35.90
2018-08-08T07:26:23.640Z,36.10
2018-08-08T07:27:55.459Z,38.30
2018-08-08T07:29:26.778Z,39.70
2018-08-08T07:30:58.347Z,36.30
2018-08-08T07:32:29.917Z,37.70
2018-08-08T07:34:01.585Z,38.00
2018-08-08T07:35:33.054Z,36.80
2018-08-08T07:37:04.625Z,36.80
2018-08-08T07:38:36.192Z,37.20
2018-08-08T07:40:07.861Z,39.50
2018-08-08T07:41:39.330Z,38.20
2018-08-08T07:43:10.899Z,39.10
2018-08-08T07:44:42.468Z,41.20
2018-08-08T07:46:14.084Z,38.00
2018-08-08T07:47:45.607Z,38.00
2018-08-08T07:49:17.177Z,38.40
2018-08-08T07:50:48.745Z,39.90
2018-08-08T07:52:20.414Z,38.90
2018-08-08T07:53:51.891Z,37.90
2018-08-08T07:55:23.463Z,36.80
2018-08-08T07:56:55.022Z,37.10
2018-08-08T07:58:26.941Z,37.90
2018-08-08T07:59:58.159Z,37.10
2018-08-08T08:01:29.729Z,40.10
2018-08-08T08:03:01.298Z,42.70
2018-08-08T08:04:32.967Z,36.90
2018-08-08T08:06:04.437Z,39.70
2018-08-08T08:07:36.005Z,37.40
2018-08-08T08:09:07.575Z,37.20
2018-08-08T08:10:39.144Z,35.80
2018-08-08T08:12:10.722Z,35.00
2018-08-08T08:13:42.282Z,37.20
2018-08-08T08:15:13.851Z,39.70
2018-08-08T08:16:45.520Z,38.30
2018-08-08T08:18:16.989Z,38.30
2018-08-08T08:19:48.809Z,40.40
2018-08-08T08:21:20.128Z,40.90
2018-08-08T08:22:51.797Z,40.60
2018-08-08T08:24:23.274Z,37.30
2018-08-08T08:25:54.836Z,40.10
2018-08-08T08:27:26.404Z,40.10
2018-08-08T08:28:57.974Z,36.20
2018-08-08T08:30:29.543Z,34.40
2018-08-08T08:32:01.112Z,38.70
2018-08-08T08:33:32.681Z,36.60
2018-08-08T08:35:05.252Z,34.00
2018-08-08T08:36:35.819Z,30.60
2018-08-08T08:38:07.388Z,33.20
2018-08-08T08:39:38.957Z,34.90
2018-08-08T08:41:10.526Z,31.50
2018-08-08T08:42:42.095Z,33.50
2018-08-08T08:44:13.666Z,32.70
2018-08-08T08:45:45.233Z,35.40
2018-08-08T08:47:16.803Z,35.90
2018-08-08T08:48:48.374Z,35.30
2018-08-08T08:50:19.980Z,29.90
2018-08-08T08:51:51.510Z,31.20
2018-08-08T08:53:23.179Z,34.60
2018-08-08T08:54:54.650Z,31.80
2018-08-08T08:56:26.217Z,32.00
2018-08-08T08:57:57.787Z,34.90
2018-08-08T08:59:29.808Z,31.80
2018-08-08T09:01:00.927Z,31.20
2018-08-08T09:02:32.567Z,31.40
2018-08-08T09:04:04.061Z,34.00
2018-08-08T09:05:35.730Z,32.00
2018-08-08T09:07:07.199Z,34.30
2018-08-08T09:08:38.770Z,29.20
2018-08-08T09:10:10.337Z,35.80
2018-08-08T09:11:42.006Z,34.40
2018-08-08T09:13:13.475Z,36.50
2018-08-08T09:14:45.044Z,32.80
2018-08-08T09:16:16.618Z,34.70
2018-08-08T09:17:48.181Z,35.50
2018-08-08T09:19:19.751Z,38.00
2018-08-08T09:20:51.320Z,42.80
2018-08-08T09:22:22.890Z,48.50
2018-08-08T09:23:54.560Z,51.80
2018-08-08T09:25:26.033Z,51.40
2018-08-08T09:26:57.597Z,55.20
2018-08-08T09:28:29.209Z,51.30
2018-08-08T09:30:01.136Z,49.20
2018-08-08T09:31:32.305Z,85.70
2018-08-08T09:33:03.879Z,66.60
2018-08-08T09:34:35.444Z,64.90
2018-08-08T09:36:07.113Z,61.10
2018-08-08T09:37:38.581Z,44.20
2018-08-08T09:39:10.151Z,55.10
2018-08-08T09:40:41.721Z,35.70
2018-08-08T09:42:13.292Z,43.90
2018-08-08T09:43:44.859Z,41.80
2018-08-08T09:45:16.429Z,46.60
2018-08-08T09:46:47.996Z,44.50
2018-08-08T09:48:19.724Z,33.60
2018-08-08T09:49:51.765Z,35.40
2018-08-08T09:51:22.761Z,36.20
2018-08-08T09:52:54.328Z,52.70
2018-08-08T09:54:25.899Z,49.60
2018-08-08T09:57:29.037Z,58.20
2018-08-08T09:59:00.607Z,50.20
2018-08-08T10:02:03.894Z,55.00
2018-08-08T10:03:35.384Z,58.60
2018-08-08T10:05:06.826Z,59.40
2018-08-08T10:06:38.397Z,74.30
2018-08-08T10:08:10.215Z,81.60
2018-08-08T10:09:42.121Z,81.40
2018-08-08T10:11:13.408Z,85.70
2018-08-08T10:12:44.675Z,80.40
2018-08-08T10:14:16.242Z,84.40
2018-08-08T10:15:47.811Z,79.30
2018-08-08T10:17:19.685Z,62.10
2018-08-08T10:18:50.959Z,54.10
2018-08-08T10:20:22.529Z,48.60
2018-08-08T10:23:25.658Z,33.20
2018-08-08T10:26:28.905Z,29.70
2018-08-08T10:28:00.366Z,31.20
2018-08-08T10:29:32.139Z,25.50
2018-08-08T10:31:03.507Z,27.90
2018-08-08T10:32:35.078Z,25.30
2018-08-08T10:34:06.644Z,28.10
2018-08-08T10:35:38.229Z,26.00
2018-08-08T10:37:09.788Z,27.00
2018-08-08T10:38:41.353Z,27.80
2018-08-08T10:40:13.227Z,28.30
2018-08-08T10:41:44.496Z,26.60
2018-08-08T10:43:16.266Z,25.00
2018-08-08T10:44:47.985Z,26.60
2018-08-08T10:47:50.773Z,22.90
2018-08-08T10:50:53.912Z,21.90
2018-08-08T10:53:57.053Z,23.70
2018-08-08T10:55:28.625Z,21.90
2018-08-08T10:57:00.198Z,23.90
2018-08-08T10:58:31.765Z,22.00
2018-08-08T11:00:03.840Z,22.60
2018-08-08T11:01:34.931Z,24.30
2018-08-08T11:03:07.540Z,20.00
2018-08-08T11:04:38.047Z,21.20
2018-08-08T11:06:09.921Z,23.30
2018-08-08T11:07:41.187Z,20.60
2018-08-08T11:09:13.063Z,19.50
2018-08-08T11:10:44.631Z,19.40
2018-08-08T11:12:15.899Z,20.50
2018-08-08T11:13:47.471Z,23.40
2018-08-08T11:16:50.643Z,20.60
2018-08-08T11:22:56.996Z,19.50
2018-08-08T11:26:00.238Z,18.10
2018-08-08T11:27:31.613Z,16.40
2018-08-08T11:29:03.176Z,16.30
2018-08-08T11:30:34.749Z,19.70
2018-08-08T11:32:06.319Z,17.30
2018-08-08T11:33:38.093Z,15.50
2018-08-08T11:36:41.692Z,15.50
2018-08-08T11:38:13.210Z,14.90
2018-08-08T11:39:44.179Z,19.50
2018-08-08T11:42:47.957Z,16.40
2018-08-08T11:45:50.995Z,19.50
2018-08-08T11:50:25.713Z,16.80
2018-08-08T11:53:28.321Z,14.20
2018-08-08T11:54:59.894Z,15.30
2018-08-08T11:56:31.839Z,15.10
2018-08-08T11:59:34.612Z,16.90
2018-08-08T12:01:06.182Z,17.40
2018-08-08T12:04:09.631Z,14.90
2018-08-08T12:05:41.251Z,17.40
2018-08-08T12:07:12.477Z,17.30
2018-08-08T12:08:44.060Z,17.20
2018-08-08T12:10:15.627Z,16.30
2018-08-08T12:11:47.305Z,14.80
2018-08-08T12:13:18.971Z,15.50
2018-08-08T12:14:50.380Z,17.90
2018-08-08T12:17:53.486Z,14.90
2018-08-08T12:19:25.267Z,14.10
2018-08-08T12:20:56.764Z,14.50
2018-08-08T12:22:28.208Z,15.70
2018-08-08T12:24:00.083Z,15.10
2018-08-08T12:25:31.763Z,12.60
2018-08-08T12:27:03.285Z,12.70
2018-08-08T12:28:34.838Z,14.40
2018-08-08T12:30:06.297Z,12.30
2018-08-08T12:33:09.232Z,12.10
2018-08-08T12:37:43.963Z,13.90
2018-08-08T12:39:15.895Z,13.30
2018-08-08T12:40:47.199Z,13.00
2018-08-08T12:42:18.691Z,14.10
2018-08-08T12:43:50.425Z,13.10
2018-08-08T12:45:21.906Z,13.50
2018-08-08T12:46:53.681Z,13.60
2018-08-08T12:48:25.056Z,14.20
2018-08-08T12:49:56.631Z,14.80
2018-08-08T12:51:28.207Z,13.20
2018-08-08T12:52:59.783Z,14.50
2018-08-08T12:54:31.561Z,13.90
2018-08-08T12:56:02.968Z,12.70
2018-08-08T12:57:34.551Z,13.90
2018-08-08T13:00:37.672Z,15.80
2018-08-08T13:02:09.738Z,14.30
2018-08-08T13:03:40.819Z,13.90
2018-08-08T13:05:12.395Z,12.50
2018-08-08T13:06:44.175Z,13.60
2018-08-08T13:09:47.127Z,13.20
2018-08-08T13:11:19.780Z,13.40
2018-08-08T13:12:50.876Z,14.70
2018-08-08T13:14:22.001Z,13.90
2018-08-08T13:15:53.386Z,14.70
2018-08-08T13:17:24.964Z,17.20
2018-08-08T13:22:00.009Z,15.10
2018-08-08T13:23:31.824Z,14.90
2018-08-08T13:25:03.067Z,13.40
2018-08-08T13:28:06.023Z,13.00
2018-08-08T13:29:38.208Z,15.30
2018-08-08T13:31:09.724Z,13.30
2018-08-08T13:32:40.763Z,13.70
2018-08-08T13:34:12.345Z,15.20
2018-08-08T13:35:43.924Z,15.70
2018-08-08T13:37:15.504Z,14.10
2018-08-08T13:38:47.093Z,14.50
2018-08-08T13:40:18.866Z,14.80
2018-08-08T13:41:50.248Z,16.10
2018-08-08T13:43:21.873Z,16.40
2018-08-08T13:44:53.946Z,18.60
2018-08-08T13:46:24.990Z,17.60
2018-08-08T13:47:56.572Z,17.00
2018-08-08T13:49:28.155Z,16.30
2018-08-08T13:51:00.040Z,17.10
2018-08-08T13:52:31.518Z,14.90
2018-08-08T13:55:34.684Z,19.00
2018-08-08T13:57:06.059Z,15.80
2018-08-08T13:58:38.494Z,16.50
2018-08-08T14:00:09.283Z,15.00
2018-08-08T14:01:40.804Z,15.70
2018-08-08T14:03:12.692Z,15.30
2018-08-08T14:04:44.171Z,15.00
2018-08-08T14:06:16.693Z,15.90
2018-08-08T14:07:47.297Z,15.10
2018-08-08T14:10:50.297Z,20.20
2018-08-08T14:12:21.954Z,22.20
2018-08-08T14:16:56.988Z,18.90
2018-08-08T14:18:28.298Z,18.40
2018-08-08T14:19:59.819Z,16.60
2018-08-08T14:21:32.059Z,16.80
2018-08-08T14:23:02.958Z,17.80
2018-08-08T14:26:06.120Z,17.10
2018-08-08T14:27:38.302Z,17.70
2018-08-08T14:29:09.345Z,17.70
2018-08-08T14:30:40.870Z,16.50
2018-08-08T14:32:12.978Z,15.90
2018-08-08T14:33:44.035Z,18.40
2018-08-08T14:35:15.718Z,18.30
2018-08-08T14:36:47.213Z,17.60
2018-08-08T14:38:18.783Z,17.20
2018-08-08T14:39:50.903Z,17.10
2018-08-08T14:41:21.950Z,17.40
2018-08-08T14:44:25.652Z,16.60
2018-08-08T14:45:57.007Z,16.00
2018-08-08T14:49:00.169Z,17.80
2018-08-08T14:50:31.450Z,17.60
2018-08-08T14:52:03.033Z,16.80
2018-08-08T14:53:34.618Z,17.70
2018-08-08T14:55:06.503Z,16.70
2018-08-08T14:56:37.783Z,16.80
2018-08-08T14:58:09.673Z,18.70
2018-08-08T14:59:41.255Z,17.00
2018-08-08T15:01:12.536Z,17.40
2018-08-08T15:02:44.121Z,17.80
2018-08-08T15:04:16.308Z,16.40
2018-08-08T15:05:47.326Z,17.60
2018-08-08T15:08:54.043Z,20.60
2018-08-08T15:10:22.201Z,18.50
2018-08-08T15:13:25.408Z,17.50
2018-08-08T15:14:56.793Z,19.10
2018-08-08T15:16:28.374Z,17.50
2018-08-08T15:18:00.167Z,18.50
2018-08-08T15:19:31.766Z,19.40
2018-08-08T15:25:38.088Z,17.30
2018-08-08T15:28:41.052Z,18.70
2018-08-08T15:30:12.641Z,18.80
2018-08-08T15:31:44.478Z,17.60
2018-08-08T15:33:15.805Z,18.10
2018-08-08T15:34:47.998Z,17.00
2018-08-08T15:39:22.148Z,18.90
2018-08-08T15:40:53.759Z,19.30
2018-08-08T15:42:25.313Z,19.60
2018-08-08T15:45:28.710Z,19.10
2018-08-08T15:47:00.272Z,18.90
2018-08-08T15:48:31.861Z,19.70
2018-08-08T15:50:03.239Z,18.20
2018-08-08T15:51:34.938Z,18.20
2018-08-08T15:53:06.412Z,17.10
2018-08-08T15:54:38.941Z,17.40
2018-08-08T15:56:10.117Z,16.70
2018-08-08T15:57:41.167Z,17.00
2018-08-08T15:59:12.762Z,17.80
2018-08-08T16:02:16.126Z,16.30
2018-08-08T16:03:47.509Z,18.10
2018-08-08T16:05:19.095Z,17.80
2018-08-08T16:06:50.680Z,17.40
2018-08-08T16:08:22.268Z,17.90
2018-08-08T16:09:54.159Z,18.50
2018-08-08T16:11:26.059Z,17.90
2018-08-08T16:12:57.026Z,17.00
2018-08-08T16:14:28.662Z,16.50
2018-08-08T16:16:00.500Z,17.80
2018-08-08T16:17:31.819Z,17.60
2018-08-08T16:22:07.078Z,20.20
2018-08-08T16:23:38.137Z,17.70
2018-08-08T16:25:09.712Z,18.70
2018-08-08T16:26:41.298Z,19.00
2018-08-08T16:28:13.037Z,18.20
2018-08-08T16:31:16.071Z,15.80
2018-08-08T16:34:19.435Z,17.00
2018-08-08T16:35:50.822Z,15.60
2018-08-08T16:37:22.403Z,17.60
2018-08-08T16:38:53.993Z,15.80
2018-08-08T16:40:25.576Z,12.80
2018-08-08T16:43:28.781Z,13.10
2018-08-08T16:46:32.556Z,12.70
2018-08-08T16:49:35.091Z,13.40
2018-08-08T16:51:07.175Z,15.10
2018-08-08T16:54:09.848Z,12.90
2018-08-08T16:55:41.657Z,14.60
2018-08-08T16:58:45.138Z,13.40
2018-08-08T17:00:16.211Z,13.70
2018-08-08T17:01:48.027Z,13.70
2018-08-08T17:03:19.661Z,13.80
2018-08-08T17:06:22.646Z,12.50
2018-08-08T17:07:54.114Z,9.70
2018-08-08T17:10:57.590Z,10.70
2018-08-08T17:15:32.042Z,9.20
2018-08-08T17:18:35.514Z,9.70
2018-08-08T17:21:38.479Z,9.60
2018-08-08T17:23:09.983Z,10.40
2018-08-08T17:26:13.130Z,10.90
2018-08-08T17:27:44.714Z,11.30
2018-08-08T17:29:16.509Z,11.90
2018-08-08T17:33:51.296Z,12.00
2018-08-08T17:35:22.831Z,10.20
2018-08-08T17:36:54.571Z,11.10
2018-08-08T17:38:26.002Z,11.40
2018-08-08T17:39:57.483Z,11.70
2018-08-08T17:41:28.962Z,10.50
2018-08-08T17:43:00.586Z,9.30
2018-08-08T17:44:32.317Z,7.90
2018-08-08T17:46:03.891Z,8.90
2018-08-08T17:47:35.309Z,8.10
2018-08-08T17:50:38.627Z,6.90
2018-08-08T17:52:10.559Z,6.90
2018-08-08T17:53:41.637Z,7.60
2018-08-08T17:55:13.220Z,6.70
2018-08-08T17:56:45.112Z,7.00
2018-08-08T17:58:16.793Z,7.00
2018-08-08T17:59:47.975Z,8.10
2018-08-08T18:01:19.571Z,7.80
2018-08-08T18:05:54.313Z,8.10
2018-08-08T18:07:25.898Z,7.20
2018-08-08T18:08:58.017Z,8.00
2018-08-08T18:10:29.599Z,6.50
2018-08-08T18:12:00.648Z,7.80
2018-08-08T18:13:32.437Z,7.10
2018-08-08T18:16:35.704Z,8.10
2018-08-08T18:19:39.283Z,6.80
2018-08-08T18:21:10.152Z,6.10
2018-08-08T18:24:13.321Z,4.80
2018-08-08T18:28:48.071Z,7.20
2018-08-08T18:30:19.667Z,6.20
2018-08-08T18:31:51.258Z,5.50
2018-08-08T18:33:23.562Z,5.80
2018-08-08T18:34:54.527Z,5.40
2018-08-08T18:36:25.989Z,7.90
2018-08-08T18:37:57.607Z,5.60
2018-08-08T18:39:29.156Z,5.70
2018-08-08T18:41:00.740Z,6.10
2018-08-08T18:42:32.321Z,4.90
2018-08-08T18:44:03.904Z,5.80
2018-08-08T18:45:35.488Z,4.80
2018-08-08T18:47:07.070Z,4.70
2018-08-08T18:50:10.550Z,5.10
2018-08-08T18:51:41.820Z,5.10
2018-08-08T18:53:13.805Z,4.70
2018-08-08T18:54:44.991Z,5.50
2018-08-08T18:57:48.351Z,4.70
2018-08-08T18:59:19.734Z,5.10
2018-08-08T19:00:52.073Z,5.60
2018-08-08T19:02:23.366Z,6.00
2018-08-08T19:03:54.712Z,5.30
2018-08-08T19:05:26.059Z,5.30
2018-08-08T19:08:29.302Z,6.70
2018-08-08T19:10:00.805Z,5.30
2018-08-08T19:11:32.641Z,5.20
2018-08-08T19:13:03.966Z,5.60
2018-08-08T19:16:07.160Z,8.90
2018-08-08T19:19:10.290Z,4.20
2018-08-08T19:20:41.871Z,4.80
2018-08-08T19:22:13.667Z,4.60
2018-08-08T19:23:45.567Z,5.40
2018-08-08T19:26:48.496Z,5.00
2018-08-08T19:28:19.772Z,5.30
2018-08-08T19:29:51.351Z,5.30
2018-08-08T19:31:23.140Z,5.50
2018-08-08T19:34:26.093Z,6.90
2018-08-08T19:35:57.879Z,5.30
2018-08-08T19:37:29.456Z,8.50
2018-08-08T19:39:00.835Z,5.00
2018-08-08T19:40:32.624Z,5.80
2018-08-08T19:42:03.990Z,4.80
2018-08-08T19:43:35.570Z,5.70
2018-08-08T19:45:07.148Z,8.20
2018-08-08T19:46:38.828Z,5.30
2018-08-08T19:48:10.509Z,6.10
2018-08-08T19:49:41.885Z,5.80
2018-08-08T19:51:13.463Z,6.30
2018-08-08T19:52:45.043Z,6.10
2018-08-08T19:54:17.156Z,6.60
2018-08-08T19:55:48.852Z,5.90
2018-08-08T19:57:19.778Z,7.70
2018-08-08T19:58:51.355Z,7.20
2018-08-08T20:00:23.145Z,7.10
2018-08-08T20:01:54.511Z,6.40
2018-08-08T20:03:26.090Z,7.40
2018-08-08T20:04:57.669Z,10.50
2018-08-08T20:06:29.246Z,11.30
2018-08-08T20:08:00.869Z,10.60
2018-08-08T20:09:32.572Z,11.30
2018-08-08T20:11:03.977Z,16.00
2018-08-08T20:12:35.556Z,19.20
2018-08-08T20:15:38.813Z,20.20
2018-08-08T20:17:10.591Z,17.90
2018-08-08T20:18:41.868Z,20.30
2018-08-08T20:21:45.222Z,20.20
2018-08-08T20:23:16.595Z,25.50
2018-08-08T20:24:48.181Z,27.20
2018-08-08T20:26:19.751Z,27.20
2018-08-08T20:27:51.862Z,30.90
2018-08-08T20:29:22.902Z,32.30
2018-08-08T20:30:54.478Z,33.00
2018-08-08T20:32:26.058Z,33.30
2018-08-08T20:33:57.825Z,37.50
2018-08-08T20:35:29.204Z,35.40
2018-08-08T20:37:00.780Z,35.00
2018-08-08T20:38:32.357Z,39.60
2018-08-08T20:40:03.931Z,38.70
2018-08-08T20:41:35.509Z,40.20
2018-08-08T20:43:07.082Z,40.30
2018-08-08T20:44:38.676Z,43.00
2018-08-08T20:46:10.235Z,41.60
2018-08-08T20:47:41.807Z,41.40
2018-08-08T20:49:13.381Z,40.30
2018-08-08T20:50:44.957Z,45.00
2018-08-08T20:52:16.630Z,44.70
2018-08-08T20:53:48.151Z,43.70
2018-08-08T20:55:19.679Z,48.00
2018-08-08T20:56:51.253Z,44.30
2018-08-08T20:58:23.029Z,43.10
2018-08-08T20:59:54.405Z,42.40
2018-08-08T21:01:25.975Z,42.00
2018-08-08T21:02:57.549Z,45.70
2018-08-08T21:04:29.123Z,43.50
2018-08-08T21:06:00.698Z,43.70
2018-08-08T21:07:32.272Z,44.00
2018-08-08T21:09:03.846Z,44.40
2018-08-08T21:10:35.419Z,45.20
2018-08-08T21:12:06.993Z,44.70
2018-08-08T21:13:38.565Z,47.40
2018-08-08T21:15:10.139Z,45.00
2018-08-08T21:16:41.864Z,42.60
2018-08-08T21:18:13.286Z,47.10
2018-08-08T21:19:44.868Z,49.90
2018-08-08T21:21:16.685Z,47.70
2018-08-08T21:22:48.012Z,51.80
2018-08-08T21:24:19.583Z,47.60
2018-08-08T21:25:51.157Z,48.10
2018-08-08T21:27:22.729Z,48.20
2018-08-08T21:28:54.303Z,49.20
2018-08-08T21:30:25.928Z,45.80
2018-08-08T21:31:57.450Z,48.70
2018-08-08T21:33:29.024Z,48.70
2018-08-08T21:35:00.599Z,49.00
2018-08-08T21:36:32.171Z,49.50
2018-08-08T21:38:03.749Z,49.70
2018-08-08T21:39:35.442Z,52.40
2018-08-08T21:41:06.901Z,45.80
2018-08-08T21:42:38.466Z,46.30
2018-08-08T21:44:10.039Z,44.20
2018-08-08T21:45:41.613Z,50.80
2018-08-08T21:47:13.193Z,53.70